< < Back
Terminal Aerodrome Forecast


Current Version              Previous Versions:   1  2  3  4  5  6  7  8  9  

Terminal Aerodrome Forecast

557
FTUS42 KTAE 300543
TAFTLH
TAF
KTLH 300543Z 3006/0106 17003KT P6SM FEW060 SCT250
     FM301400 19005KT P6SM SCT040
     FM301500 17005KT P6SM VCTS SCT030CB BKN200
     FM301700 17008KT 4SM -TSRA BKN030CB OVC100
     FM302300 18005KT P6SM SCT040 BKN150=



Latest METAR

818
SAUS80 KWBC 301500 RRB
MTRTLH
METAR KTLH 301453Z 00000KT 10SM -RA FEW030CB SCT080 BKN100 24/23 A3002
RMK AO2 SLP165 CB OHD MOV NE P0017 60023 T02440228 50016


USA.gov is the U.S. government's official web portal to all federal, state and local government web resources and services.